Time;durP1;ratioP1;P1;durP2;ratioP2;P2;SDS_P1;SDS_P2;PMS_P1;PMS_P2;Temp;Humidity;BMP_temperature;BMP_pressure;BME280_temperature;BME280_humidity;BME280_pressure;Samples;Min_cycle;Max_cycle;Signal;HPM_P1;HPM_P2
2022/02/22 00:01:34;;;;;;;3.90;1.47;;;6.30;99.90;;;;;;4984563;28;20206;-72
2022/02/22 00:04:00;;;;;;;7.00;1.23;;;6.30;99.90;;;;;;4983181;28;20225;-72
2022/02/22 00:06:26;;;;;;;2.03;0.90;;;6.30;99.90;;;;;;4983275;28;20559;-73
2022/02/22 00:08:51;;;;;;;8.33;1.40;;;6.30;99.90;;;;;;4982472;28;20180;-72
2022/02/22 00:11:17;;;;;;;4.33;0.87;;;6.30;99.90;;;;;;4982816;28;20200;-72
2022/02/22 00:13:43;;;;;;;7.60;1.37;;;6.40;99.90;;;;;;4983208;28;20804;-72
2022/02/22 00:16:08;;;;;;;2.37;0.90;;;6.30;99.90;;;;;;4985411;28;20181;-72
2022/02/22 00:18:34;;;;;;;8.23;1.03;;;6.30;99.90;;;;;;4981787;28;20175;-72
2022/02/22 00:21:00;;;;;;;7.40;1.40;;;6.40;99.90;;;;;;4985364;28;20632;-71
2022/02/22 00:23:25;;;;;;;5.13;1.20;;;6.40;99.90;;;;;;4982659;28;20304;-72
2022/02/22 00:25:51;;;;;;;3.13;0.87;;;6.40;99.90;;;;;;4983513;28;20426;-71
2022/02/22 00:28:20;;;;;;;2.30;0.90;;;6.30;99.90;;;;;;4984778;28;20582;-70
2022/02/22 00:30:49;;;;;;;2.93;1.23;;;6.20;99.90;;;;;;4982579;28;20591;-72
2022/02/22 00:33:15;;;;;;;7.80;1.40;;;6.20;99.90;;;;;;4982773;28;20489;-70
2022/02/22 00:35:41;;;;;;;6.60;1.10;;;6.10;99.90;;;;;;4984483;28;20417;-71
2022/02/22 00:38:07;;;;;;;6.90;0.93;;;6.10;99.90;;;;;;4990191;28;20414;-73
2022/02/22 00:40:33;;;;;;;9.90;1.67;;;6.00;99.90;;;;;;4993475;28;20406;-72
2022/02/22 00:42:58;;;;;;;7.03;1.10;;;6.00;99.90;;;;;;4993166;28;20201;-72
2022/02/22 00:45:23;;;;;;;5.60;0.83;;;6.10;99.90;;;;;;4991564;28;20180;-72
2022/02/22 00:47:49;;;;;;;4.17;1.10;;;6.10;99.90;;;;;;4991268;28;20252;-72
2022/02/22 00:50:15;;;;;;;6.57;1.47;;;6.10;99.90;;;;;;4991265;28;20238;-72
2022/02/22 00:52:40;;;;;;;6.33;0.77;;;6.10;99.90;;;;;;4989575;28;20210;-72
2022/02/22 00:55:06;;;;;;;7.13;1.43;;;6.10;99.90;;;;;;4990899;28;20262;-72
2022/02/22 00:57:32;;;;;;;8.10;1.60;;;6.10;99.90;;;;;;4990819;28;20175;-72
2022/02/22 00:59:58;;;;;;;7.63;1.20;;;6.00;99.90;;;;;;4992130;28;20422;-72
2022/02/22 05:33:17;;;;;;;7.97;2.13;;;3.90;99.90;;;;;;4927960;29;20489;-74
2022/02/22 05:35:44;;;;;;;4.53;2.20;;;3.90;99.90;;;;;;4948760;29;20426;-74
2022/02/22 05:38:10;;;;;;;1.73;1.23;;;3.90;99.90;;;;;;4948390;28;20438;-74
2022/02/22 05:40:35;;;;;;;12.90;3.33;;;3.80;99.90;;;;;;4945902;28;20432;-71
2022/02/22 05:43:01;;;;;;;5.03;3.40;;;3.80;99.90;;;;;;4950561;29;20181;-72
2022/02/22 05:45:26;;;;;;;8.83;2.70;;;3.80;99.90;;;;;;4949299;29;20657;-73
2022/02/22 05:47:52;;;;;;;6.30;3.13;;;3.80;99.90;;;;;;4946282;28;20178;-74
2022/02/22 05:50:17;;;;;;;9.53;1.83;;;3.80;99.90;;;;;;4946298;29;20193;-73
2022/02/22 05:52:43;;;;;;;6.90;2.07;;;3.80;99.90;;;;;;4951455;29;20217;-71
2022/02/22 05:55:09;;;;;;;2.40;1.63;;;3.80;99.90;;;;;;4948813;29;20193;-74
2022/02/22 05:57:34;;;;;;;6.80;2.00;;;3.80;99.90;;;;;;4952164;28;20186;-73
2022/02/22 06:00:00;;;;;;;5.80;1.80;;;3.80;99.90;;;;;;4948075;29;20789;-74
2022/02/22 06:02:26;;;;;;;8.47;2.00;;;3.80;99.90;;;;;;4945730;29;20678;-73
2022/02/22 06:04:52;;;;;;;8.80;4.50;;;3.70;99.90;;;;;;4941343;29;20184;-73
2022/02/22 06:07:20;;;;;;;7.03;1.83;;;3.80;99.90;;;;;;4951114;29;21024;-71
2022/02/22 06:09:46;;;;;;;3.33;1.50;;;3.80;99.90;;;;;;4951747;28;20203;-74
2022/02/22 06:12:12;;;;;;;8.57;2.33;;;3.90;99.90;;;;;;4942246;28;20794;-74
2022/02/22 06:14:37;;;;;;;3.20;2.40;;;3.90;99.90;;;;;;4949332;29;20256;-73
2022/02/22 06:17:03;;;;;;;5.90;2.10;;;3.90;99.90;;;;;;4948720;29;20182;-74
2022/02/22 06:19:29;;;;;;;5.30;1.90;;;3.90;99.90;;;;;;4946158;28;20254;-74
2022/02/22 06:21:54;;;;;;;7.93;2.43;;;3.90;99.90;;;;;;4941812;29;20429;-74
2022/02/22 06:24:20;;;;;;;6.27;2.50;;;3.80;99.90;;;;;;4946420;29;20268;-73
2022/02/22 06:26:45;;;;;;;9.20;3.50;;;3.80;99.90;;;;;;4943422;29;20203;-75
2022/02/22 06:29:11;;;;;;;10.60;2.43;;;3.80;99.90;;;;;;4933934;29;20625;-75
2022/02/22 06:31:36;;;;;;;5.13;2.17;;;3.80;99.90;;;;;;4927775;29;20232;-73
2022/02/22 06:34:04;;;;;;;5.23;2.17;;;3.80;99.90;;;;;;4926348;29;20213;-74
2022/02/22 06:36:30;;;;;;;3.70;2.30;;;3.80;99.90;;;;;;4924315;29;20205;-75
2022/02/22 06:38:56;;;;;;;6.27;1.90;;;3.90;99.90;;;;;;4932086;29;20412;-74
2022/02/22 06:41:22;;;;;;;6.03;2.10;;;4.00;99.90;;;;;;4931759;29;20803;-75
2022/02/22 06:43:47;;;;;;;5.70;2.07;;;4.00;99.90;;;;;;4931828;29;20189;-75
2022/02/22 06:46:13;;;;;;;1.57;1.40;;;4.10;99.90;;;;;;4932999;29;20222;-75
2022/02/22 06:48:38;;;;;;;6.63;2.30;;;4.10;99.90;;;;;;4932197;29;20191;-74
2022/02/22 06:51:05;;;;;;;3.23;1.83;;;4.20;99.90;;;;;;4932519;29;20207;-75
2022/02/22 06:53:30;;;;;;;5.40;2.23;;;4.30;99.90;;;;;;4934744;29;20215;-75
2022/02/22 06:55:56;;;;;;;6.20;2.33;;;4.30;99.90;;;;;;4936113;29;20758;-75
2022/02/22 06:58:21;;;;;;;13.13;2.50;;;4.30;99.90;;;;;;4935823;29;20244;-75
2022/02/22 07:00:48;;;;;;;8.47;2.47;;;4.40;99.90;;;;;;4935399;29;20175;-75
2022/02/22 07:03:14;;;;;;;3.63;1.90;;;4.50;99.90;;;;;;4935533;29;20176;-75
2022/02/22 07:05:40;;;;;;;9.03;2.50;;;4.50;99.90;;;;;;4935437;29;20947;-75
2022/02/22 07:08:06;;;;;;;9.93;2.63;;;4.50;99.90;;;;;;4935461;29;20426;-75
2022/02/22 07:10:31;;;;;;;4.37;2.93;;;4.60;99.90;;;;;;4935450;29;20549;-75
2022/02/22 07:12:57;;;;;;;9.20;2.90;;;4.60;99.90;;;;;;4934788;29;20492;-74
2022/02/22 07:15:23;;;;;;;6.57;2.10;;;4.70;99.90;;;;;;4935620;29;20181;-75
2022/02/22 07:17:54;;;;;;;5.90;2.73;;;4.90;99.90;;;;;;4935087;29;20183;-75
2022/02/22 07:20:22;;;;;;;9.77;3.00;;;5.00;99.90;;;;;;4935402;29;20416;-75
2022/02/22 07:22:48;;;;;;;5.33;2.50;;;5.10;99.90;;;;;;4934755;29;20436;-75
2022/02/22 07:25:16;;;;;;;7.93;2.43;;;5.30;99.90;;;;;;4935487;29;20446;-76
2022/02/22 07:27:47;;;;;;;9.60;2.57;;;5.40;99.90;;;;;;4935088;29;20435;-75
2022/02/22 07:30:18;;;;;;;7.47;2.87;;;5.80;99.90;;;;;;4935455;29;20421;-76
2022/02/22 07:32:45;;;;;;;8.67;3.07;;;5.90;99.90;;;;;;4934671;29;20461;-73
2022/02/22 07:35:11;;;;;;;12.60;2.93;;;5.90;99.90;;;;;;4935427;29;20883;-75
2022/02/22 07:37:38;;;;;;;9.87;2.70;;;5.90;99.90;;;;;;4934311;29;20784;-73
2022/02/22 07:40:05;;;;;;;11.57;2.57;;;6.80;99.90;;;;;;4933083;29;20478;-73
2022/02/22 07:42:31;;;;;;;6.00;2.57;;;7.20;99.90;;;;;;4934656;29;20452;-76
2022/02/22 07:44:56;;;;;;;5.53;2.70;;;7.80;99.90;;;;;;4934413;29;20945;-72
2022/02/22 07:47:22;;;;;;;7.50;2.30;;;8.40;99.90;;;;;;4935232;29;20274;-76
2022/02/22 07:49:47;;;;;;;7.63;2.00;;;9.80;99.90;;;;;;4933991;29;20181;-73
2022/02/22 07:52:13;;;;;;;4.40;1.80;;;10.30;99.90;;;;;;4933581;29;20228;-74
2022/02/22 07:54:39;;;;;;;5.17;2.37;;;10.80;99.90;;;;;;4931380;28;20213;-74
2022/02/22 07:57:04;;;;;;;4.93;2.00;;;11.70;99.90;;;;;;4934366;29;20209;-74
2022/02/22 07:59:30;;;;;;;13.20;2.30;;;12.20;99.90;;;;;;4934282;29;20658;-74
2022/02/22 08:01:55;;;;;;;9.63;2.13;;;12.70;99.90;;;;;;4934375;29;20201;-75
2022/02/22 08:04:21;;;;;;;6.50;1.87;;;13.00;99.90;;;;;;4932418;29;20177;-74
2022/02/22 08:06:47;;;;;;;5.57;1.83;;;13.40;99.90;;;;;;4934625;29;20486;-74
2022/02/22 08:09:12;;;;;;;10.97;3.30;;;13.10;99.90;;;;;;4934384;29;20181;-75
2022/02/22 08:11:38;;;;;;;7.00;2.90;;;12.40;99.90;;;;;;4934310;29;20197;-74
2022/02/22 08:14:05;;;;;;;10.10;2.43;;;11.40;99.90;;;;;;4933760;29;20275;-75
2022/02/22 08:16:31;;;;;;;11.07;1.80;;;10.40;99.90;;;;;;4933832;29;20479;-75
2022/02/22 08:18:57;;;;;;;7.80;1.87;;;10.10;99.90;;;;;;4934271;29;20415;-74
2022/02/22 08:21:23;;;;;;;5.50;1.60;;;10.00;99.90;;;;;;4934450;29;20200;-75
2022/02/22 08:23:49;;;;;;;7.73;2.60;;;10.10;99.90;;;;;;4933686;29;20188;-76
2022/02/22 08:26:16;;;;;;;11.50;2.03;;;9.90;99.90;;;;;;4934165;29;20423;-75
2022/02/22 08:28:43;;;;;;;12.40;2.20;;;9.70;99.90;;;;;;4933884;29;20423;-75
2022/02/22 08:31:09;;;;;;;6.80;2.00;;;9.80;99.90;;;;;;4933964;29;20439;-75
2022/02/22 08:33:35;;;;;;;9.17;1.90;;;9.30;99.90;;;;;;4933523;29;20456;-75
2022/02/22 08:36:00;;;;;;;10.53;2.37;;;8.90;99.90;;;;;;4934240;29;21045;-75
2022/02/22 08:38:26;;;;;;;11.90;2.37;;;8.50;99.90;;;;;;4933358;29;20173;-74
2022/02/22 08:40:51;;;;;;;11.70;1.70;;;8.50;99.90;;;;;;4933872;29;20183;-75
2022/02/22 08:43:18;;;;;;;15.23;2.30;;;8.80;99.90;;;;;;4933268;29;20181;-73
2022/02/22 08:45:44;;;;;;;5.33;2.27;;;9.10;99.90;;;;;;4933871;29;20188;-75
2022/02/22 08:48:14;;;;;;;4.90;2.20;;;9.00;99.90;;;;;;4933892;29;20421;-75
2022/02/22 08:50:40;;;;;;;4.10;2.13;;;9.30;99.90;;;;;;4932694;29;20424;-74
2022/02/22 08:53:06;;;;;;;9.40;2.03;;;9.10;99.90;;;;;;4932660;29;20463;-74
2022/02/22 08:55:31;;;;;;;6.33;1.67;;;9.10;99.90;;;;;;4933765;29;20471;-75
2022/02/22 08:57:58;;;;;;;6.93;2.30;;;8.90;99.90;;;;;;4933673;29;20424;-73
2022/02/22 09:00:25;;;;;;;10.60;2.60;;;8.50;99.90;;;;;;4933561;29;20238;-74
2022/02/22 09:02:53;;;;;;;8.70;2.00;;;8.30;99.90;;;;;;4932267;29;20489;-75
2022/02/22 09:05:19;;;;;;;7.60;1.63;;;8.30;99.90;;;;;;4933754;29;20415;-73
2022/02/22 09:07:45;;;;;;;7.87;1.87;;;8.20;99.90;;;;;;4933557;29;20493;-74
2022/02/22 09:10:15;;;;;;;11.23;2.37;;;8.20;99.90;;;;;;4933169;29;20577;-75
2022/02/22 09:12:41;;;;;;;4.17;1.30;;;8.10;99.90;;;;;;4932354;29;20444;-74
2022/02/22 09:15:08;;;;;;;8.50;2.97;;;8.00;99.90;;;;;;4932203;29;20467;-75
2022/02/22 09:17:33;;;;;;;10.60;2.03;;;7.90;99.90;;;;;;4933346;29;20421;-75
2022/02/22 09:20:01;;;;;;;6.07;2.13;;;7.70;99.90;;;;;;4932721;29;20415;-74
2022/02/22 09:22:27;;;;;;;16.10;2.10;;;7.70;99.90;;;;;;4932939;29;20713;-74
2022/02/22 09:24:52;;;;;;;7.30;2.40;;;7.60;99.90;;;;;;4932162;29;20419;-75
2022/02/22 09:27:18;;;;;;;8.90;2.10;;;7.60;99.90;;;;;;4933351;29;20184;-73
2022/02/22 09:29:44;;;;;;;8.07;2.20;;;7.80;99.90;;;;;;4932886;29;20186;-75
2022/02/22 09:32:09;;;;;;;4.17;2.03;;;7.80;99.90;;;;;;4933046;29;20214;-75
2022/02/22 09:34:35;;;;;;;7.93;1.93;;;7.90;99.90;;;;;;4931964;29;20348;-75
2022/02/22 09:37:03;;;;;;;11.10;2.23;;;7.80;99.90;;;;;;4932654;29;20259;-74
2022/02/22 09:39:30;;;;;;;8.97;2.20;;;7.70;99.90;;;;;;4933057;29;20176;-75
2022/02/22 09:41:55;;;;;;;3.63;2.27;;;7.80;99.90;;;;;;4933015;29;20868;-75
2022/02/22 09:44:21;;;;;;;7.20;1.80;;;7.80;99.90;;;;;;4930682;29;20565;-74
2022/02/22 09:46:47;;;;;;;5.83;1.80;;;7.80;99.90;;;;;;4932659;29;20661;-75
2022/02/22 09:49:13;;;;;;;7.30;1.70;;;7.90;99.90;;;;;;4932917;29;20284;-75
2022/02/22 09:51:39;;;;;;;3.90;1.53;;;7.90;99.90;;;;;;4932692;29;20820;-73
2022/02/22 09:54:04;;;;;;;8.23;1.93;;;8.00;99.90;;;;;;4931531;29;20475;-74
2022/02/22 09:56:30;;;;;;;9.90;1.70;;;8.10;99.90;;;;;;4932760;29;20191;-74
2022/02/22 09:58:55;;;;;;;6.10;2.73;;;8.20;99.90;;;;;;4932747;29;20176;-74
2022/02/22 10:01:22;;;;;;;6.13;1.60;;;8.20;99.90;;;;;;4932869;29;20205;-73
2022/02/22 10:03:58;;;;;;;11.67;2.20;;;8.20;99.90;;;;;;4932198;29;20184;-74
2022/02/22 10:06:25;;;;;;;6.50;1.63;;;8.10;99.90;;;;;;4932810;29;20493;-74
2022/02/22 10:08:56;;;;;;;10.40;2.27;;;8.10;99.90;;;;;;4932527;29;20937;-74
2022/02/22 10:11:21;;;;;;;3.97;1.63;;;8.20;99.90;;;;;;4932536;29;20433;-74
2022/02/22 10:13:47;;;;;;;8.50;1.67;;;8.30;99.90;;;;;;4931869;29;21026;-75
2022/02/22 10:16:14;;;;;;;6.30;1.60;;;8.50;99.90;;;;;;4932475;29;20178;-74
2022/02/22 10:18:53;;;;;;;6.50;1.57;;;8.50;99.90;;;;;;4932222;29;20174;-73
2022/02/22 10:21:20;;;;;;;5.03;2.50;;;8.70;99.90;;;;;;4931180;29;21014;-74
2022/02/22 10:23:47;;;;;;;10.40;2.40;;;8.70;99.90;;;;;;4931811;29;20451;-74
2022/02/22 10:26:26;;;;;;;5.53;1.80;;;8.80;99.90;;;;;;4932639;29;20421;-73
2022/02/22 10:28:52;;;;;;;5.00;1.60;;;9.00;99.90;;;;;;4936103;29;20180;-73
2022/02/22 10:31:32;;;;;;;3.23;1.47;;;9.00;99.90;;;;;;4935840;29;20462;-73
2022/02/22 10:33:57;;;;;;;8.50;1.97;;;9.00;99.90;;;;;;4934214;29;20470;-73
2022/02/22 10:36:23;;;;;;;9.27;3.37;;;9.00;99.90;;;;;;4935567;29;20424;-73
2022/02/22 10:38:48;;;;;;;3.27;2.10;;;9.00;99.90;;;;;;4936022;29;20364;-75
2022/02/22 10:41:15;;;;;;;6.27;1.90;;;9.00;99.90;;;;;;4935246;29;20216;-74
2022/02/22 10:44:02;;;;;;;8.90;2.10;;;9.00;99.90;;;;;;4935227;29;20190;-74
2022/02/22 10:46:32;;;;;;;10.87;2.70;;;9.00;99.90;;;;;;4935260;29;20425;-73
2022/02/22 10:49:04;;;;;;;10.67;2.60;;;9.00;99.90;;;;;;4935807;29;20421;-73
2022/02/22 10:51:44;;;;;;;6.30;1.93;;;9.10;99.90;;;;;;4934907;29;20455;-73
2022/02/22 10:54:26;;;;;;;7.17;2.60;;;9.30;99.90;;;;;;4935230;29;20915;-73
2022/02/22 10:56:53;;;;;;;10.33;2.50;;;9.40;99.90;;;;;;4935779;29;20415;-73
2022/02/22 10:59:20;;;;;;;4.30;1.60;;;9.40;99.90;;;;;;4935027;29;20538;-72
2022/02/22 11:01:46;;;;;;;7.40;2.10;;;9.30;99.90;;;;;;4935032;29;20464;-74
2022/02/22 11:04:12;;;;;;;8.03;2.20;;;9.30;99.90;;;;;;4934760;29;20423;-75
2022/02/22 11:06:38;;;;;;;15.10;2.70;;;9.20;99.90;;;;;;4935270;29;20453;-73
2022/02/22 11:09:04;;;;;;;10.70;3.07;;;9.00;99.90;;;;;;4935637;29;20939;-74
2022/02/22 11:11:43;;;;;;;7.80;2.40;;;8.80;99.90;;;;;;4934827;29;20211;-74
2022/02/22 11:14:13;;;;;;;9.50;2.10;;;8.80;99.90;;;;;;4934814;29;20481;-75
2022/02/22 11:16:46;;;;;;;7.83;2.60;;;8.80;99.90;;;;;;4934159;29;21077;-73
2022/02/22 11:19:15;;;;;;;11.93;4.50;;;8.70;99.90;;;;;;4935365;29;20431;-73
2022/02/22 11:21:42;;;;;;;11.03;2.70;;;8.80;99.90;;;;;;4934466;29;20532;-73
2022/02/22 11:24:09;;;;;;;6.97;2.53;;;8.90;99.90;;;;;;4933355;28;20449;-74
2022/02/22 11:26:48;;;;;;;10.63;2.87;;;8.90;99.90;;;;;;4934942;29;20428;-75
2022/02/22 11:29:15;;;;;;;9.27;2.60;;;8.90;99.90;;;;;;4935356;29;20434;-74
2022/02/22 11:31:42;;;;;;;12.23;2.60;;;8.80;99.90;;;;;;4934520;29;20472;-73
2022/02/22 11:34:07;;;;;;;7.83;2.43;;;8.90;99.90;;;;;;4934377;29;20468;-75
2022/02/22 11:36:36;;;;;;;8.80;2.10;;;8.90;99.90;;;;;;4935077;28;20845;-74
2022/02/22 11:39:06;;;;;;;6.13;2.50;;;9.00;99.90;;;;;;4933642;29;20603;-74
2022/02/22 11:41:40;;;;;;;5.33;2.43;;;9.20;99.90;;;;;;4935046;29;20951;-74
2022/02/22 11:44:16;;;;;;;3.43;1.80;;;9.40;99.90;;;;;;4934013;29;20483;-74
2022/02/22 11:46:48;;;;;;;10.87;3.27;;;9.50;99.90;;;;;;4935000;29;20427;-75
2022/02/22 11:49:25;;;;;;;4.30;2.13;;;9.40;99.90;;;;;;4934474;29;20427;-75
2022/02/22 11:51:52;;;;;;;8.13;2.90;;;9.20;99.90;;;;;;4935115;29;20440;-75
2022/02/22 11:54:26;;;;;;;12.33;2.90;;;9.30;99.90;;;;;;4934058;29;21073;-74
2022/02/22 11:57:15;;;;;;;6.70;2.17;;;9.40;99.90;;;;;;4934453;29;20435;-73
2022/02/22 12:00:02;;;;;;;6.00;2.13;;;9.50;99.90;;;;;;4934230;29;20481;-73
2022/02/22 12:02:28;;;;;;;13.07;3.43;;;9.50;99.90;;;;;;4934673;29;20970;-73
2022/02/22 12:04:55;;;;;;;8.73;2.53;;;9.60;99.90;;;;;;4934050;29;20924;-74
2022/02/22 12:07:32;;;;;;;11.30;4.37;;;9.60;99.90;;;;;;4934685;29;20419;-73
2022/02/22 12:10:00;;;;;;;11.03;2.33;;;9.70;99.90;;;;;;4934258;29;20439;-73
2022/02/22 12:12:26;;;;;;;11.67;2.47;;;9.90;99.90;;;;;;4933552;29;20519;-73
2022/02/22 12:14:54;;;;;;;8.60;2.53;;;10.20;99.90;;;;;;4934096;29;20475;-74
2022/02/22 12:17:20;;;;;;;9.10;1.87;;;10.40;99.90;;;;;;4934674;29;20430;-74
2022/02/22 12:19:50;;;;;;;12.63;2.00;;;10.40;99.90;;;;;;4933836;29;20432;-75
2022/02/22 12:22:18;;;;;;;5.27;2.30;;;10.20;99.90;;;;;;4934144;29;20569;-75
2022/02/22 12:24:44;;;;;;;5.97;1.83;;;10.10;99.90;;;;;;4933712;29;20432;-75
2022/02/22 12:27:14;;;;;;;6.17;2.00;;;10.00;99.90;;;;;;4934566;29;20785;-75
2022/02/22 12:29:41;;;;;;;9.43;2.60;;;10.00;99.90;;;;;;4933253;29;20189;-73
2022/02/22 12:32:07;;;;;;;6.77;1.90;;;10.00;99.90;;;;;;4933842;29;20468;-73
2022/02/22 12:34:33;;;;;;;7.87;3.00;;;10.00;99.90;;;;;;4931894;29;20475;-75
2022/02/22 12:37:01;;;;;;;13.30;2.27;;;10.00;99.90;;;;;;4933433;29;20419;-74
2022/02/22 12:39:29;;;;;;;9.77;1.63;;;10.00;99.90;;;;;;4933067;29;20235;-74
2022/02/22 12:41:59;;;;;;;9.10;1.83;;;10.00;99.90;;;;;;4934097;29;20502;-75
2022/02/22 12:44:26;;;;;;;8.37;1.77;;;9.90;99.90;;;;;;4933505;29;20430;-74
2022/02/22 12:46:55;;;;;;;9.67;3.70;;;9.90;99.90;;;;;;4932932;29;20438;-74
2022/02/22 12:49:22;;;;;;;5.77;2.20;;;9.80;99.90;;;;;;4933632;29;20792;-75
2022/02/22 12:51:49;;;;;;;7.00;1.60;;;9.80;99.90;;;;;;4933787;29;21048;-75
2022/02/22 12:54:21;;;;;;;7.97;1.80;;;9.80;99.90;;;;;;4933310;29;20505;-75
2022/02/22 12:56:51;;;;;;;5.70;1.73;;;9.90;99.90;;;;;;4933356;29;20424;-75
2022/02/22 12:59:22;;;;;;;5.80;1.67;;;10.10;99.90;;;;;;4933117;29;20446;-73
2022/02/22 13:01:48;;;;;;;10.13;2.40;;;10.10;99.90;;;;;;4933953;29;20439;-75
2022/02/22 13:04:21;;;;;;;11.63;1.93;;;10.10;99.90;;;;;;4933368;29;20500;-75
2022/02/22 13:06:52;;;;;;;10.80;1.93;;;10.10;99.90;;;;;;4933737;29;20438;-75
2022/02/22 13:09:19;;;;;;;7.87;2.00;;;10.20;99.90;;;;;;4933156;29;20482;-74
2022/02/22 13:11:46;;;;;;;13.43;2.67;;;10.30;99.90;;;;;;4933235;29;20438;-76
2022/02/22 13:14:12;;;;;;;5.20;1.60;;;10.30;99.90;;;;;;4933092;29;20570;-75
2022/02/22 13:17:00;;;;;;;12.43;2.50;;;10.50;99.90;;;;;;4933348;29;20416;-74
2022/02/22 13:19:40;;;;;;;12.00;2.10;;;10.60;99.90;;;;;;4933400;29;20455;-76
2022/02/22 13:22:21;;;;;;;11.47;2.60;;;10.50;99.90;;;;;;4932889;29;20447;-75
2022/02/22 13:25:12;;;;;;;6.83;2.10;;;10.60;99.90;;;;;;4931511;29;20444;-75
2022/02/22 13:27:38;;;;;;;4.80;1.93;;;10.60;99.90;;;;;;4933240;29;20424;-73
2022/02/22 13:30:09;;;;;;;7.57;1.70;;;10.40;99.90;;;;;;4933476;29;20481;-75
2022/02/22 13:32:36;;;;;;;7.90;2.13;;;10.30;99.90;;;;;;4932669;29;20482;-76
2022/02/22 13:35:19;;;;;;;16.90;2.00;;;10.30;99.90;;;;;;4932825;29;20476;-75
2022/02/22 13:37:45;;;;;;;10.60;2.50;;;10.50;99.90;;;;;;4933334;29;20778;-76
2022/02/22 13:40:14;;;;;;;7.17;1.87;;;10.40;99.90;;;;;;4932894;29;20506;-76
2022/02/22 13:42:41;;;;;;;8.30;2.00;;;10.40;99.90;;;;;;4933052;29;20728;-74
2022/02/22 13:45:10;;;;;;;13.43;2.13;;;10.20;99.90;;;;;;4930943;29;20435;-76
2022/02/22 13:47:38;;;;;;;10.57;1.80;;;10.00;99.90;;;;;;4933285;29;20428;-75
2022/02/22 13:50:17;;;;;;;6.53;1.37;;;10.00;99.90;;;;;;4933690;29;20803;-75
2022/02/22 13:52:52;;;;;;;8.83;1.93;;;9.90;99.90;;;;;;4934610;29;20487;-75
2022/02/22 13:55:17;;;;;;;5.97;2.03;;;10.00;99.90;;;;;;4931929;29;20478;-73
2022/02/22 13:57:47;;;;;;;7.20;2.20;;;10.00;99.90;;;;;;4932982;29;20441;-75
2022/02/22 14:00:13;;;;;;;4.70;1.67;;;9.90;99.90;;;;;;4933222;29;20657;-76
2022/02/22 14:02:39;;;;;;;10.93;2.27;;;9.90;99.90;;;;;;4937615;29;21261;-74
2022/02/22 14:05:08;;;;;;;12.07;2.47;;;9.90;99.90;;;;;;4939262;29;20522;-75
2022/02/22 14:07:34;;;;;;;8.17;2.07;;;10.00;99.90;;;;;;4939304;29;20196;-75
2022/02/22 14:10:03;;;;;;;8.70;1.87;;;9.90;99.90;;;;;;4938961;29;20800;-75
2022/02/22 14:12:28;;;;;;;8.50;1.83;;;9.90;99.90;;;;;;4938688;29;20549;-75
2022/02/22 14:14:54;;;;;;;10.27;1.73;;;9.90;99.90;;;;;;4938840;29;20528;-76
2022/02/22 14:17:19;;;;;;;6.77;2.20;;;10.00;99.90;;;;;;4939077;29;20239;-76
2022/02/22 14:19:45;;;;;;;7.83;1.80;;;9.90;99.90;;;;;;4938842;28;20245;-76
2022/02/22 14:22:10;;;;;;;10.13;2.03;;;9.90;99.90;;;;;;4942577;29;20206;-75
2022/02/22 14:24:36;;;;;;;10.47;2.70;;;9.90;99.90;;;;;;4937028;29;20492;-74
2022/02/22 14:27:02;;;;;;;6.20;1.60;;;9.80;99.90;;;;;;4937741;29;20190;-75
2022/02/22 14:29:27;;;;;;;8.93;2.80;;;10.00;99.90;;;;;;4937617;29;20187;-75
2022/02/22 14:31:54;;;;;;;13.50;2.50;;;10.00;99.90;;;;;;4938729;29;20225;-75
2022/02/22 14:34:20;;;;;;;9.83;2.03;;;10.00;99.90;;;;;;4938417;29;20211;-75
2022/02/22 14:36:45;;;;;;;14.60;2.70;;;10.00;99.90;;;;;;4939194;29;20909;-75
2022/02/22 14:39:11;;;;;;;6.73;1.80;;;9.90;99.90;;;;;;4938262;29;20178;-75
2022/02/22 14:41:38;;;;;;;7.07;2.40;;;9.80;99.90;;;;;;4938678;29;20204;-73
2022/02/22 14:44:06;;;;;;;14.33;2.17;;;9.90;99.90;;;;;;4938324;29;20426;-75
2022/02/22 14:46:32;;;;;;;8.23;1.97;;;9.90;99.90;;;;;;4939035;29;20420;-75
2022/02/22 14:48:58;;;;;;;7.23;1.53;;;9.90;99.90;;;;;;4938332;29;20430;-74
2022/02/22 14:51:24;;;;;;;8.33;2.10;;;10.00;99.90;;;;;;4938696;29;20523;-75
2022/02/22 14:53:49;;;;;;;12.47;1.90;;;10.00;99.90;;;;;;4938257;29;20468;-75
2022/02/22 14:56:17;;;;;;;13.47;2.33;;;9.90;99.90;;;;;;4939055;29;20191;-75
2022/02/22 14:58:44;;;;;;;8.57;2.70;;;9.90;99.90;;;;;;4938816;29;20202;-75
2022/02/22 15:01:10;;;;;;;8.67;1.67;;;9.60;99.90;;;;;;4938333;29;20437;-75
2022/02/22 15:03:37;;;;;;;7.70;2.07;;;9.50;99.90;;;;;;4937871;29;20473;-75
2022/02/22 15:06:04;;;;;;;5.33;2.00;;;9.40;99.90;;;;;;4938750;29;20567;-75
2022/02/22 15:08:31;;;;;;;14.10;3.33;;;9.30;99.90;;;;;;4938674;29;20435;-75
2022/02/22 15:10:59;;;;;;;13.17;2.40;;;9.30;99.90;;;;;;4938089;29;20442;-74
2022/02/22 15:13:25;;;;;;;11.20;1.80;;;9.30;99.90;;;;;;4936377;29;20473;-75
2022/02/22 15:15:50;;;;;;;16.03;2.30;;;9.30;99.90;;;;;;4935818;29;20418;-74
2022/02/22 15:18:16;;;;;;;9.30;1.77;;;9.30;99.90;;;;;;4935920;29;20189;-75
2022/02/22 15:20:46;;;;;;;5.57;1.60;;;9.30;99.90;;;;;;4934846;29;20182;-75
2022/02/22 15:23:12;;;;;;;5.73;1.80;;;9.20;99.90;;;;;;4934884;29;20236;-75
2022/02/22 15:25:38;;;;;;;8.60;2.27;;;9.20;99.90;;;;;;4935566;29;20416;-75
2022/02/22 15:28:04;;;;;;;3.97;1.93;;;9.30;99.90;;;;;;4935657;29;20418;-75
2022/02/22 15:30:30;;;;;;;13.23;2.13;;;9.20;99.90;;;;;;4935326;29;20208;-75
2022/02/22 15:32:55;;;;;;;3.73;1.73;;;9.20;99.90;;;;;;4934224;29;20561;-75
2022/02/22 15:35:21;;;;;;;4.50;1.50;;;9.20;99.90;;;;;;4932516;29;20206;-73
2022/02/22 15:37:46;;;;;;;6.20;2.27;;;9.20;99.90;;;;;;4935184;29;20182;-75
2022/02/22 15:40:12;;;;;;;6.90;2.20;;;9.20;99.90;;;;;;4934893;29;20174;-75
2022/02/22 15:42:40;;;;;;;7.90;2.20;;;9.20;99.90;;;;;;4934188;29;20224;-74
2022/02/22 15:45:06;;;;;;;7.50;2.03;;;9.10;99.90;;;;;;4934275;29;20537;-75
2022/02/22 15:47:33;;;;;;;5.10;2.10;;;9.00;99.90;;;;;;4936031;29;20943;-75
2022/02/22 15:50:00;;;;;;;6.63;1.87;;;9.00;99.90;;;;;;4940696;29;20427;-73
2022/02/22 15:52:26;;;;;;;8.37;1.90;;;9.00;99.90;;;;;;4935168;29;20434;-73
2022/02/22 15:54:51;;;;;;;12.80;1.97;;;9.00;99.90;;;;;;4934998;29;20450;-74
2022/02/22 15:57:17;;;;;;;7.20;1.73;;;9.00;99.90;;;;;;4935925;29;20478;-74
2022/02/22 15:59:42;;;;;;;9.03;2.10;;;9.00;99.90;;;;;;4930056;29;20576;-75
2022/02/22 16:02:10;;;;;;;6.50;1.87;;;9.00;99.90;;;;;;4934702;29;20220;-74
2022/02/22 16:04:36;;;;;;;11.13;2.70;;;9.00;99.90;;;;;;4934175;29;20223;-75
2022/02/22 16:07:01;;;;;;;8.63;2.40;;;8.90;99.90;;;;;;4934758;29;20443;-74
2022/02/22 16:09:28;;;;;;;13.50;2.17;;;8.90;99.90;;;;;;4935046;28;20583;-73
2022/02/22 16:11:57;;;;;;;10.57;3.63;;;8.80;99.90;;;;;;4934369;29;20693;-73
2022/02/22 16:14:23;;;;;;;9.83;2.47;;;8.80;99.90;;;;;;4932196;29;20493;-74
2022/02/22 16:16:48;;;;;;;6.83;2.80;;;8.70;99.90;;;;;;4934176;29;20455;-73
2022/02/22 16:19:14;;;;;;;13.40;3.90;;;8.60;99.90;;;;;;4934781;29;20460;-75
2022/02/22 16:21:39;;;;;;;11.20;3.90;;;8.60;99.90;;;;;;4934234;29;20692;-75
2022/02/22 16:24:06;;;;;;;17.30;5.97;;;8.60;99.90;;;;;;4933026;29;20605;-75
2022/02/22 16:26:31;;;;;;;12.63;6.80;;;8.50;99.90;;;;;;4933624;29;20207;-74
2022/02/22 16:28:57;;;;;;;10.83;2.97;;;8.50;99.90;;;;;;4933654;28;20466;-74
2022/02/22 16:31:22;;;;;;;9.00;3.00;;;8.50;99.90;;;;;;4933530;29;20220;-74
2022/02/22 16:33:48;;;;;;;4.70;2.37;;;8.50;99.90;;;;;;4932605;28;20228;-74
2022/02/22 16:36:13;;;;;;;12.23;2.13;;;8.50;99.90;;;;;;4933815;29;20266;-74
2022/02/22 16:38:39;;;;;;;9.73;2.73;;;8.50;99.90;;;;;;4933858;29;20216;-74
2022/02/22 16:41:05;;;;;;;10.40;2.83;;;8.50;99.90;;;;;;4933713;29;20317;-74
2022/02/22 16:43:33;;;;;;;10.30;4.60;;;8.40;99.90;;;;;;4931903;29;20365;-74
2022/02/22 16:46:03;;;;;;;12.50;3.03;;;8.40;99.90;;;;;;4932938;28;20648;-73
2022/02/22 16:48:28;;;;;;;15.53;2.50;;;8.30;99.90;;;;;;4932894;29;20967;-73
2022/02/22 16:50:55;;;;;;;6.90;2.63;;;8.20;99.90;;;;;;4929900;29;20464;-74
2022/02/22 16:53:22;;;;;;;13.10;2.67;;;8.20;99.90;;;;;;4931943;29;20218;-74
2022/02/22 16:55:49;;;;;;;9.80;2.70;;;8.20;99.90;;;;;;4933022;28;20538;-73
2022/02/22 16:58:15;;;;;;;8.20;2.20;;;8.20;99.90;;;;;;4933236;29;20555;-74
2022/02/22 17:00:40;;;;;;;15.90;2.67;;;8.20;99.90;;;;;;4932517;28;20455;-75
2022/02/22 17:03:09;;;;;;;12.63;2.70;;;8.20;99.90;;;;;;4931819;29;20281;-74
2022/02/22 17:05:35;;;;;;;12.07;3.37;;;8.20;99.90;;;;;;4932746;28;20216;-74
2022/02/22 17:08:00;;;;;;;10.03;3.50;;;8.20;99.90;;;;;;4931928;29;20639;-74
2022/02/22 17:10:26;;;;;;;11.10;3.17;;;8.10;99.90;;;;;;4932276;28;20593;-72
2022/02/22 17:12:52;;;;;;;9.10;2.67;;;8.10;99.90;;;;;;4931637;29;20565;-74
2022/02/22 17:15:20;;;;;;;11.20;3.50;;;8.10;99.90;;;;;;4932166;28;20702;-75
2022/02/22 17:17:46;;;;;;;16.30;3.73;;;8.10;99.90;;;;;;4932792;29;20208;-75
2022/02/22 17:20:14;;;;;;;17.70;3.50;;;8.20;99.90;;;;;;4932074;29;20460;-77
2022/02/22 17:22:40;;;;;;;10.43;3.30;;;8.10;99.90;;;;;;4932697;29;20711;-73
2022/02/22 17:25:07;;;;;;;9.87;4.00;;;8.10;99.90;;;;;;4932230;28;20469;-73